createdAt,value
2018-02-20T00:00:05.209Z,-0.50
2018-02-20T00:01:07.733Z,-0.50
2018-02-20T00:02:10.219Z,-0.50
2018-02-20T00:03:12.746Z,-0.50
2018-02-20T00:04:16.015Z,-0.50
2018-02-20T00:05:19.259Z,-0.50
2018-02-20T00:06:21.793Z,-0.50
2018-02-20T00:07:24.281Z,-0.50
2018-02-20T00:08:27.552Z,-0.50
2018-02-20T00:09:30.796Z,-0.50
2018-02-20T00:10:34.032Z,-0.50
2018-02-20T00:11:37.354Z,-0.60
2018-02-20T00:12:40.611Z,-0.60
2018-02-20T00:13:43.874Z,-0.60
2018-02-20T00:14:46.414Z,-0.60
2018-02-20T00:15:48.926Z,-0.60
2018-02-20T00:16:51.477Z,-0.60
2018-02-20T00:17:53.990Z,-0.60
2018-02-20T00:18:56.509Z,-0.60
2018-02-20T00:20:00.135Z,-0.60
2018-02-20T00:21:02.629Z,-0.60
2018-02-20T00:22:05.138Z,-0.60
2018-02-20T00:23:07.621Z,-0.60
2018-02-20T00:24:10.873Z,-0.60
2018-02-20T00:25:13.352Z,-0.60
2018-02-20T00:26:15.882Z,-0.60
2018-02-20T00:27:18.377Z,-0.60
2018-02-20T00:28:20.871Z,-0.60
2018-02-20T00:29:23.441Z,-0.60
2018-02-20T00:30:25.916Z,-0.60
2018-02-20T00:31:29.142Z,-0.60
2018-02-20T00:32:32.407Z,-0.60
2018-02-20T00:33:35.639Z,-0.60
2018-02-20T00:34:38.871Z,-0.60
2018-02-20T00:35:42.202Z,-0.60
2018-02-20T00:36:44.766Z,-0.70
2018-02-20T00:37:48.038Z,-0.70
2018-02-20T00:38:50.537Z,-0.70
2018-02-20T00:39:53.014Z,-0.70
2018-02-20T00:40:55.505Z,-0.60
2018-02-20T00:41:57.974Z,-0.70
2018-02-20T00:43:00.470Z,-0.60
2018-02-20T00:44:02.969Z,-0.70
2018-02-20T00:45:06.113Z,-0.60
2018-02-20T00:46:08.609Z,-0.60
2018-02-20T00:47:11.891Z,-0.70
2018-02-20T00:48:14.368Z,-0.70
2018-02-20T00:49:16.867Z,-0.70
2018-02-20T00:50:19.343Z,-0.70
2018-02-20T00:51:21.877Z,-0.70
2018-02-20T00:52:24.363Z,-0.70
2018-02-20T00:53:27.623Z,-0.70
2018-02-20T00:54:30.852Z,-0.70
2018-02-20T00:55:34.123Z,-0.80
2018-02-20T00:56:37.020Z,-0.80
2018-02-20T00:57:39.686Z,-0.70
2018-02-20T00:58:42.434Z,-0.80
2018-02-20T00:59:45.505Z,-0.80
2018-02-20T01:00:48.027Z,-0.80
2018-02-20T01:01:50.653Z,-0.80
2018-02-20T01:02:53.200Z,-0.80
2018-02-20T01:03:56.447Z,-0.80
2018-02-20T01:04:59.711Z,-0.80
2018-02-20T01:06:02.959Z,-0.80
2018-02-20T01:07:05.466Z,-0.80
2018-02-20T01:08:08.744Z,-0.80
2018-02-20T01:09:11.866Z,-0.80
2018-02-20T01:10:15.093Z,-0.80
2018-02-20T01:11:18.324Z,-0.80
2018-02-20T01:12:20.899Z,-0.80
2018-02-20T01:13:24.211Z,-0.80
2018-02-20T01:14:27.580Z,-0.80
2018-02-20T01:15:30.052Z,-0.80
2018-02-20T01:16:32.558Z,-0.80
2018-02-20T01:17:35.052Z,-0.80
2018-02-20T01:18:37.530Z,-0.80
2018-02-20T01:19:40.034Z,-0.90
2018-02-20T01:20:42.511Z,-0.90
2018-02-20T01:21:45.807Z,-0.80
2018-02-20T01:22:48.308Z,-0.90
2018-02-20T01:23:50.865Z,-0.90
2018-02-20T01:24:53.366Z,-0.90
2018-02-20T01:25:55.841Z,-0.90
2018-02-20T01:26:59.136Z,-0.90
2018-02-20T01:28:01.666Z,-0.90
2018-02-20T01:29:04.182Z,-0.90
2018-02-20T01:30:06.672Z,-1.00
2018-02-20T01:31:10.149Z,-1.00
2018-02-20T01:32:12.632Z,-1.00
2018-02-20T01:33:15.864Z,-1.00
2018-02-20T01:34:18.431Z,-1.00
2018-02-20T01:35:20.963Z,-1.00
2018-02-20T01:36:23.501Z,-1.10
2018-02-20T01:37:25.982Z,-1.10
2018-02-20T01:38:29.238Z,-1.10
2018-02-20T01:39:32.479Z,-1.10
2018-02-20T01:40:35.286Z,-1.10
2018-02-20T01:41:38.366Z,-1.10
2018-02-20T01:42:42.192Z,-1.10
2018-02-20T01:43:44.754Z,-1.10
2018-02-20T01:44:47.267Z,-1.10
2018-02-20T01:45:50.646Z,-1.10
2018-02-20T01:46:55.198Z,-1.10
2018-02-20T01:47:57.686Z,-1.10
2018-02-20T01:49:00.962Z,-1.20
2018-02-20T01:50:03.450Z,-1.20
2018-02-20T01:51:08.836Z,-1.20
2018-02-20T01:52:11.314Z,-1.20
2018-02-20T01:53:13.804Z,-1.10
2018-02-20T01:54:17.048Z,-1.20
2018-02-20T01:55:20.337Z,-1.20
2018-02-20T01:56:23.197Z,-1.20
2018-02-20T01:57:27.350Z,-1.20
2018-02-20T01:58:29.827Z,-1.20
2018-02-20T01:59:32.418Z,-1.20
2018-02-20T02:00:35.615Z,-1.20
2018-02-20T02:01:38.203Z,-1.20
2018-02-20T02:02:41.479Z,-1.20
2018-02-20T02:03:43.990Z,-1.20
2018-02-20T02:04:46.741Z,-1.10
2018-02-20T02:05:49.259Z,-1.10
2018-02-20T02:06:52.609Z,-1.10
2018-02-20T02:07:55.103Z,-1.10
2018-02-20T02:08:58.344Z,-1.10
2018-02-20T02:10:01.680Z,-1.10
2018-02-20T02:11:04.946Z,-1.10
2018-02-20T02:12:08.371Z,-1.10
2018-02-20T02:13:10.892Z,-1.10
2018-02-20T02:14:13.374Z,-1.10
2018-02-20T02:15:15.875Z,-1.10
2018-02-20T02:16:18.372Z,-1.10
2018-02-20T02:17:21.676Z,-1.10
2018-02-20T02:18:24.185Z,-1.10
2018-02-20T02:19:26.650Z,-1.10
2018-02-20T02:20:29.905Z,-1.20
2018-02-20T02:21:32.418Z,-1.10
2018-02-20T02:22:34.937Z,-1.20
2018-02-20T02:23:38.293Z,-1.20
2018-02-20T02:24:41.614Z,-1.20
2018-02-20T02:25:44.232Z,-1.20
2018-02-20T02:26:46.747Z,-1.20
2018-02-20T02:27:49.233Z,-1.20
2018-02-20T02:28:52.473Z,-1.10
2018-02-20T02:29:55.755Z,-1.20
2018-02-20T02:30:58.246Z,-1.20
2018-02-20T02:32:01.482Z,-1.10
2018-02-20T02:33:04.820Z,-1.10
2018-02-20T02:34:07.416Z,-1.20
2018-02-20T02:35:10.059Z,-1.10
2018-02-20T02:36:12.503Z,-1.10
2018-02-20T02:37:15.808Z,-1.10
2018-02-20T02:38:18.440Z,-1.20
2018-02-20T02:39:20.946Z,-1.10
2018-02-20T02:40:23.496Z,-1.20
2018-02-20T02:41:26.092Z,-1.20
2018-02-20T02:42:29.472Z,-1.10
2018-02-20T02:43:32.826Z,-1.20
2018-02-20T02:44:35.433Z,-1.20
2018-02-20T02:45:37.918Z,-1.20
2018-02-20T02:46:40.430Z,-1.20
2018-02-20T02:47:44.052Z,-1.20
2018-02-20T02:48:48.096Z,-1.20
2018-02-20T02:49:50.806Z,-1.20
2018-02-20T02:50:53.348Z,-1.10
2018-02-20T02:51:55.840Z,-1.20
2018-02-20T02:52:59.033Z,-1.20
2018-02-20T02:54:01.538Z,-1.20
2018-02-20T02:55:04.075Z,-1.20
2018-02-20T02:56:06.572Z,-1.20
2018-02-20T02:57:09.100Z,-1.10
2018-02-20T02:58:11.589Z,-1.20
2018-02-20T02:59:14.863Z,-1.10
2018-02-20T03:00:17.364Z,-1.20
2018-02-20T03:01:20.596Z,-1.10
2018-02-20T03:02:23.861Z,-1.10
2018-02-20T03:03:26.368Z,-1.20
2018-02-20T03:04:29.648Z,-1.10
2018-02-20T03:05:32.140Z,-1.10
2018-02-20T03:06:35.443Z,-1.10
2018-02-20T03:07:38.039Z,-1.10
2018-02-20T03:08:40.672Z,-1.10
2018-02-20T03:09:43.142Z,-1.10
2018-02-20T03:10:46.443Z,-1.10
2018-02-20T03:11:49.010Z,-1.10
2018-02-20T03:12:52.172Z,-1.10
2018-02-20T03:13:54.837Z,-1.10
2018-02-20T03:14:57.314Z,-1.10
2018-02-20T03:15:59.874Z,-1.00
2018-02-20T03:17:02.369Z,-1.00
2018-02-20T03:18:04.950Z,-1.00
2018-02-20T03:19:07.438Z,-1.00
2018-02-20T03:20:11.527Z,-1.00
2018-02-20T03:21:14.138Z,-1.00
2018-02-20T03:22:16.637Z,-1.00
2018-02-20T03:23:19.885Z,-1.00
2018-02-20T03:24:22.423Z,-1.00
2018-02-20T03:25:24.921Z,-1.00
2018-02-20T03:26:28.301Z,-1.00
2018-02-20T03:27:30.787Z,-1.00
2018-02-20T03:28:33.351Z,-1.00
2018-02-20T03:29:36.780Z,-1.00
2018-02-20T03:30:40.069Z,-1.00
2018-02-20T03:31:42.572Z,-1.00
2018-02-20T03:32:45.124Z,-1.00
2018-02-20T03:33:47.618Z,-1.00
2018-02-20T03:34:50.123Z,-1.00
2018-02-20T03:35:53.493Z,-1.00
2018-02-20T03:36:56.288Z,-1.00
2018-02-20T03:37:59.581Z,-1.00
2018-02-20T03:39:02.102Z,-1.00
2018-02-20T03:40:04.577Z,-1.00
2018-02-20T03:41:08.628Z,-0.90
2018-02-20T03:42:11.871Z,-1.00
2018-02-20T03:43:14.374Z,-1.00
2018-02-20T03:44:16.982Z,-1.00
2018-02-20T03:45:19.447Z,-1.00
2018-02-20T03:46:21.993Z,-1.00
2018-02-20T03:47:26.000Z,-1.00
2018-02-20T03:48:28.483Z,-1.10
2018-02-20T03:49:30.942Z,-1.00
2018-02-20T03:50:33.422Z,-1.00
2018-02-20T03:51:35.968Z,-1.00
2018-02-20T03:52:39.224Z,-1.00
2018-02-20T03:53:42.499Z,-1.00
2018-02-20T03:54:45.032Z,-1.10
2018-02-20T03:55:48.363Z,-1.10
2018-02-20T03:56:50.849Z,-1.10
2018-02-20T03:57:54.089Z,-1.10
2018-02-20T03:58:57.342Z,-1.10
2018-02-20T03:59:59.849Z,-1.10
2018-02-20T04:01:02.362Z,-1.10
2018-02-20T04:02:04.961Z,-1.10
2018-02-20T04:03:07.560Z,-1.10
2018-02-20T04:04:10.094Z,-1.10
2018-02-20T04:05:12.601Z,-1.10
2018-02-20T04:06:15.933Z,-1.10
2018-02-20T04:07:19.218Z,-1.10
2018-02-20T04:08:21.709Z,-1.10
2018-02-20T04:09:24.938Z,-1.10
2018-02-20T04:10:28.262Z,-1.10
2018-02-20T04:11:31.535Z,-1.20
2018-02-20T04:12:34.902Z,-1.20
2018-02-20T04:13:38.853Z,-1.20
2018-02-20T04:14:41.933Z,-1.20
2018-02-20T04:15:44.476Z,-1.20
2018-02-20T04:16:48.525Z,-1.20
2018-02-20T04:17:51.021Z,-1.20
2018-02-20T04:18:53.565Z,-1.20
2018-02-20T04:19:56.044Z,-1.20
2018-02-20T04:20:59.316Z,-1.20
2018-02-20T04:22:01.821Z,-1.20
2018-02-20T04:23:04.300Z,-1.20
2018-02-20T04:24:06.781Z,-1.20
2018-02-20T04:25:09.361Z,-1.20
2018-02-20T04:26:13.387Z,-1.30
2018-02-20T04:27:15.911Z,-1.30
2018-02-20T04:28:18.447Z,-1.30
2018-02-20T04:29:20.927Z,-1.30
2018-02-20T04:30:24.216Z,-1.30
2018-02-20T04:31:26.760Z,-1.30
2018-02-20T04:32:29.268Z,-1.30
2018-02-20T04:33:31.732Z,-1.30
2018-02-20T04:34:35.046Z,-1.30
2018-02-20T04:35:37.651Z,-1.30
2018-02-20T04:36:40.181Z,-1.30
2018-02-20T04:37:44.058Z,-1.30
2018-02-20T04:38:46.539Z,-1.30
2018-02-20T04:39:49.024Z,-1.30
2018-02-20T04:40:51.570Z,-1.30
2018-02-20T04:41:54.915Z,-1.30
2018-02-20T04:42:58.260Z,-1.30
2018-02-20T04:44:02.334Z,-1.30
2018-02-20T04:45:05.627Z,-1.30
2018-02-20T04:46:08.196Z,-1.30
2018-02-20T04:47:11.549Z,-1.30
2018-02-20T04:48:14.854Z,-1.30
2018-02-20T04:49:18.890Z,-1.30
2018-02-20T04:50:21.411Z,-1.30
2018-02-20T04:51:24.681Z,-1.30
2018-02-20T04:52:27.452Z,-1.30
2018-02-20T04:53:29.944Z,-1.30
2018-02-20T04:54:33.320Z,-1.30
2018-02-20T04:55:35.814Z,-1.30
2018-02-20T04:56:38.319Z,-1.30
2018-02-20T04:57:40.846Z,-1.40
2018-02-20T04:58:43.321Z,-1.30
2018-02-20T04:59:46.351Z,-1.40
2018-02-20T05:00:48.842Z,-1.40
2018-02-20T05:01:51.436Z,-1.40
2018-02-20T05:02:54.450Z,-1.40
2018-02-20T05:03:57.778Z,-1.40
2018-02-20T05:05:01.061Z,-1.40
2018-02-20T05:06:03.570Z,-1.40
2018-02-20T05:07:06.042Z,-1.40
2018-02-20T05:08:08.590Z,-1.40
2018-02-20T05:09:11.139Z,-1.40
2018-02-20T05:10:14.459Z,-1.30
2018-02-20T05:11:17.054Z,-1.40
2018-02-20T05:12:19.554Z,-1.30
2018-02-20T05:13:22.052Z,-1.30
2018-02-20T05:14:25.374Z,-1.30
2018-02-20T05:15:27.898Z,-1.30
2018-02-20T05:16:31.971Z,-1.40
2018-02-20T05:17:34.455Z,-1.40
2018-02-20T05:18:36.960Z,-1.40
2018-02-20T05:19:39.907Z,-1.30
2018-02-20T05:20:42.412Z,-1.30
2018-02-20T05:21:45.678Z,-1.30
2018-02-20T05:22:48.180Z,-1.30
2018-02-20T05:23:51.243Z,-1.30
2018-02-20T05:24:53.723Z,-1.30
2018-02-20T05:25:56.988Z,-1.40
2018-02-20T05:26:59.686Z,-1.40
2018-02-20T05:28:02.969Z,-1.40
2018-02-20T05:29:06.006Z,-1.40
2018-02-20T05:30:08.539Z,-1.40
2018-02-20T05:31:11.076Z,-1.40
2018-02-20T05:32:13.793Z,-1.40
2018-02-20T05:33:16.296Z,-1.30
2018-02-20T05:34:19.667Z,-1.40
2018-02-20T05:35:22.243Z,-1.40
2018-02-20T05:36:25.495Z,-1.40
2018-02-20T05:37:28.772Z,-1.40
2018-02-20T05:38:32.960Z,-1.40
2018-02-20T05:39:35.537Z,-1.40
2018-02-20T05:40:38.124Z,-1.40
2018-02-20T05:41:40.638Z,-1.40
2018-02-20T05:42:43.103Z,-1.40
2018-02-20T05:43:46.389Z,-1.40
2018-02-20T05:44:49.586Z,-1.40
2018-02-20T05:45:52.080Z,-1.40
2018-02-20T05:46:54.630Z,-1.40
2018-02-20T05:47:58.962Z,-1.40
2018-02-20T05:49:01.483Z,-1.40
2018-02-20T05:50:03.955Z,-1.40
2018-02-20T05:51:06.525Z,-1.40
2018-02-20T05:52:09.003Z,-1.40
2018-02-20T05:53:11.534Z,-1.40
2018-02-20T05:54:14.099Z,-1.40
2018-02-20T05:55:16.568Z,-1.40
2018-02-20T05:56:19.054Z,-1.40
2018-02-20T05:57:21.554Z,-1.40
2018-02-20T05:58:24.803Z,-1.40
2018-02-20T05:59:27.288Z,-1.40
2018-02-20T06:00:31.321Z,-1.40
2018-02-20T06:01:33.940Z,-1.40
2018-02-20T06:02:36.427Z,-1.40
2018-02-20T06:03:39.690Z,-1.40
2018-02-20T06:04:42.215Z,-1.50
2018-02-20T06:05:44.748Z,-1.40
2018-02-20T06:06:47.321Z,-1.50
2018-02-20T06:07:50.343Z,-1.50
2018-02-20T06:08:52.931Z,-1.50
2018-02-20T06:09:55.418Z,-1.50
2018-02-20T06:10:57.931Z,-1.50
2018-02-20T06:12:00.476Z,-1.50
2018-02-20T06:13:03.777Z,-1.40
2018-02-20T06:14:06.296Z,-1.40
2018-02-20T06:15:08.799Z,-1.40
2018-02-20T06:16:11.331Z,-1.40
2018-02-20T06:17:13.963Z,-1.50
2018-02-20T06:18:16.469Z,-1.50
2018-02-20T06:19:19.918Z,-1.50
2018-02-20T06:20:22.476Z,-1.50
2018-02-20T06:21:25.739Z,-1.50
2018-02-20T06:22:28.228Z,-1.50
2018-02-20T06:23:30.753Z,-1.50
2018-02-20T06:24:33.238Z,-1.50
2018-02-20T06:25:35.869Z,-1.40
2018-02-20T06:26:38.424Z,-1.50
2018-02-20T06:27:40.958Z,-1.50
2018-02-20T06:28:43.542Z,-1.50
2018-02-20T06:29:46.839Z,-1.40
2018-02-20T06:30:49.404Z,-1.40
2018-02-20T06:31:51.982Z,-1.40
2018-02-20T06:32:54.463Z,-1.40
2018-02-20T06:33:58.466Z,-1.40
2018-02-20T06:35:00.998Z,-1.40
2018-02-20T06:36:03.471Z,-1.40
2018-02-20T06:37:06.055Z,-1.40
2018-02-20T06:38:08.577Z,-1.40
2018-02-20T06:39:11.098Z,-1.40
2018-02-20T06:40:13.558Z,-1.40
2018-02-20T06:41:16.111Z,-1.40
2018-02-20T06:42:20.376Z,-1.30
2018-02-20T06:43:23.131Z,-1.30
2018-02-20T06:44:26.391Z,-1.30
2018-02-20T06:45:28.862Z,-1.30
2018-02-20T06:46:31.368Z,-1.30
2018-02-20T06:47:33.840Z,-1.30
2018-02-20T06:48:37.086Z,-1.30
2018-02-20T06:49:40.375Z,-1.30
2018-02-20T06:50:42.871Z,-1.30
2018-02-20T06:51:46.124Z,-1.30
2018-02-20T06:52:48.636Z,-1.30
2018-02-20T06:53:51.124Z,-1.20
2018-02-20T06:54:54.355Z,-1.20
2018-02-20T06:55:56.847Z,-1.20
2018-02-20T06:56:59.362Z,-1.20
2018-02-20T06:58:01.850Z,-1.20
2018-02-20T06:59:04.423Z,-1.10
2018-02-20T07:00:06.910Z,-1.10
2018-02-20T07:01:11.030Z,-1.10
2018-02-20T07:02:13.546Z,-1.20
2018-02-20T07:03:16.062Z,-1.10
2018-02-20T07:04:18.579Z,-1.10
2018-02-20T07:05:21.178Z,-1.10
2018-02-20T07:06:24.329Z,-1.10
2018-02-20T07:07:27.841Z,-1.10
2018-02-20T07:08:30.307Z,-1.10
2018-02-20T07:09:32.857Z,-1.10
2018-02-20T07:10:35.338Z,-1.10
2018-02-20T07:11:37.891Z,-1.10
2018-02-20T07:12:40.346Z,-1.10
2018-02-20T07:13:42.833Z,-1.10
2018-02-20T07:14:45.403Z,-1.10
2018-02-20T07:15:47.892Z,-1.10
2018-02-20T07:16:51.033Z,-1.10
2018-02-20T07:17:53.535Z,-1.00
2018-02-20T07:18:56.013Z,-1.10
2018-02-20T07:19:58.507Z,-1.00
2018-02-20T07:21:01.012Z,-1.00
2018-02-20T07:22:04.285Z,-1.00
2018-02-20T07:23:06.765Z,-1.00
2018-02-20T07:24:10.025Z,-0.90
2018-02-20T07:25:13.281Z,-1.00
2018-02-20T07:26:16.514Z,-1.00
2018-02-20T07:27:20.484Z,-0.90
2018-02-20T07:28:23.727Z,-0.90
2018-02-20T07:29:26.250Z,-1.00
2018-02-20T07:30:29.502Z,-0.90
2018-02-20T07:31:32.042Z,-0.90
2018-02-20T07:32:34.730Z,-0.90
2018-02-20T07:33:37.518Z,-0.90
2018-02-20T07:34:40.905Z,-0.90
2018-02-20T07:35:44.618Z,-0.90
2018-02-20T07:36:47.127Z,-0.90
2018-02-20T07:37:50.135Z,-0.80
2018-02-20T07:38:53.423Z,-0.80
2018-02-20T07:39:56.057Z,-0.80
2018-02-20T07:40:58.536Z,-0.80
2018-02-20T07:42:01.814Z,-0.70
2018-02-20T07:43:04.280Z,-0.80
2018-02-20T07:44:07.476Z,-0.70
2018-02-20T07:45:10.005Z,-0.70
2018-02-20T07:46:12.820Z,-0.70
2018-02-20T07:47:15.818Z,-0.70
2018-02-20T07:48:19.287Z,-0.80
2018-02-20T07:49:22.127Z,-0.80
2018-02-20T07:50:24.694Z,-0.70
2018-02-20T07:51:28.044Z,-0.70
2018-02-20T07:52:31.270Z,-0.80
2018-02-20T07:53:33.918Z,-0.70
2018-02-20T07:54:36.452Z,-0.70
2018-02-20T07:55:39.426Z,-0.70
2018-02-20T07:56:41.956Z,-0.60
2018-02-20T07:57:44.498Z,-0.60
2018-02-20T07:58:47.052Z,-0.60
2018-02-20T07:59:49.549Z,-0.60
2018-02-20T08:00:52.180Z,-0.60
2018-02-20T08:01:55.454Z,-0.60
2018-02-20T08:02:58.958Z,-0.60
2018-02-20T08:04:01.590Z,-0.60
2018-02-20T08:05:04.256Z,-0.60
2018-02-20T08:06:06.780Z,-0.60
2018-02-20T08:07:10.254Z,-0.50
2018-02-20T08:08:14.325Z,-0.50
2018-02-20T08:09:16.848Z,-0.50
2018-02-20T08:10:20.134Z,-0.40
2018-02-20T08:11:22.759Z,-0.50
2018-02-20T08:12:25.298Z,-0.40
2018-02-20T08:13:27.823Z,-0.40
2018-02-20T08:14:30.363Z,-0.40
2018-02-20T08:15:32.981Z,-0.40
2018-02-20T08:16:36.280Z,-0.40
2018-02-20T08:17:39.533Z,-0.30
2018-02-20T08:18:42.161Z,-0.30
2018-02-20T08:19:44.753Z,-0.30
2018-02-20T08:20:48.789Z,-0.30
2018-02-20T08:21:51.335Z,-0.30
2018-02-20T08:22:53.815Z,-0.20
2018-02-20T08:23:56.393Z,-0.20
2018-02-20T08:24:59.045Z,-0.20
2018-02-20T08:26:01.608Z,-0.20
2018-02-20T08:27:04.088Z,-0.30
2018-02-20T08:28:06.789Z,-0.30
2018-02-20T08:29:09.283Z,-0.20
2018-02-20T08:30:12.035Z,-0.20
2018-02-20T08:31:14.592Z,-0.10
2018-02-20T08:32:17.922Z,0.10
2018-02-20T08:33:20.392Z,0.10
2018-02-20T08:34:23.017Z,0.30
2018-02-20T08:35:25.541Z,0.50
2018-02-20T08:36:28.038Z,0.60
2018-02-20T08:37:31.452Z,0.60
2018-02-20T08:38:33.931Z,0.70
2018-02-20T08:39:37.160Z,1.00
2018-02-20T08:40:39.768Z,0.90
2018-02-20T08:41:42.577Z,1.10
2018-02-20T08:42:45.073Z,1.10
2018-02-20T08:43:47.561Z,1.30
2018-02-20T08:44:50.059Z,1.30
2018-02-20T08:45:52.546Z,1.30
2018-02-20T08:46:55.023Z,1.40
2018-02-20T08:47:57.503Z,1.40
2018-02-20T08:49:00.008Z,1.40
2018-02-20T08:50:03.424Z,1.80
2018-02-20T08:51:06.023Z,1.80
2018-02-20T08:52:08.505Z,1.90
2018-02-20T08:53:11.746Z,2.20
2018-02-20T08:54:15.233Z,2.20
2018-02-20T08:55:17.770Z,2.20
2018-02-20T08:56:20.244Z,2.30
2018-02-20T08:57:23.517Z,2.20
2018-02-20T08:58:26.110Z,2.20
2018-02-20T08:59:29.368Z,2.20
2018-02-20T09:00:32.724Z,2.30
2018-02-20T09:01:35.405Z,2.30
2018-02-20T09:02:37.863Z,2.20
2018-02-20T09:03:41.140Z,2.10
2018-02-20T09:04:43.643Z,2.10
2018-02-20T09:05:46.132Z,2.10
2018-02-20T09:06:48.596Z,2.20
2018-02-20T09:07:51.083Z,2.10
2018-02-20T09:08:53.655Z,2.10
2018-02-20T09:09:57.688Z,2.10
2018-02-20T09:11:00.215Z,2.10
2018-02-20T09:12:03.589Z,2.00
2018-02-20T09:13:06.111Z,2.00
2018-02-20T09:14:08.588Z,2.00
2018-02-20T09:15:11.078Z,1.90
2018-02-20T09:16:13.548Z,1.90
2018-02-20T09:17:16.805Z,1.90
2018-02-20T09:18:20.098Z,1.90
2018-02-20T09:19:22.638Z,1.90
2018-02-20T09:20:25.271Z,1.90
2018-02-20T09:21:28.288Z,1.90
2018-02-20T09:22:30.773Z,1.80
2018-02-20T09:23:35.519Z,1.70
2018-02-20T09:24:38.206Z,1.70
2018-02-20T09:25:40.833Z,1.70
2018-02-20T09:26:43.477Z,1.70
2018-02-20T09:27:46.000Z,1.60
2018-02-20T09:28:48.489Z,1.60
2018-02-20T09:29:50.977Z,1.60
2018-02-20T09:30:53.498Z,1.50
2018-02-20T09:31:56.765Z,1.50
2018-02-20T09:33:00.069Z,1.50
2018-02-20T09:34:02.538Z,1.50
2018-02-20T09:35:05.787Z,1.40
2018-02-20T09:36:09.038Z,1.30
2018-02-20T09:37:11.544Z,1.30
2018-02-20T09:38:14.852Z,1.30
2018-02-20T09:39:18.116Z,1.30
2018-02-20T09:40:20.797Z,1.20
2018-02-20T09:41:23.269Z,1.20
2018-02-20T09:42:27.248Z,1.20
2018-02-20T09:43:30.564Z,1.30
2018-02-20T09:44:33.055Z,1.30
2018-02-20T09:45:35.573Z,1.30
2018-02-20T09:46:38.050Z,1.30
2018-02-20T09:47:40.520Z,1.30
2018-02-20T09:48:43.175Z,1.20
2018-02-20T09:49:45.674Z,1.30
2018-02-20T09:50:48.170Z,1.30
2018-02-20T09:51:51.413Z,1.40
2018-02-20T09:52:54.641Z,1.30
2018-02-20T09:53:57.131Z,1.30
2018-02-20T09:54:59.636Z,1.30
2018-02-20T09:56:02.104Z,1.30
2018-02-20T09:57:04.617Z,1.30
2018-02-20T09:58:07.107Z,1.30
2018-02-20T09:59:09.598Z,1.30
2018-02-20T10:00:12.840Z,1.40
2018-02-20T10:01:15.297Z,1.40
2018-02-20T10:02:18.607Z,1.60
2018-02-20T10:03:21.171Z,1.50
2018-02-20T10:04:23.645Z,1.60
2018-02-20T10:05:27.634Z,1.70
2018-02-20T10:06:30.899Z,1.70
2018-02-20T10:07:33.412Z,1.70
2018-02-20T10:08:35.961Z,1.70
2018-02-20T10:09:38.440Z,1.70
2018-02-20T10:10:40.959Z,1.70
2018-02-20T10:11:43.464Z,1.70
2018-02-20T10:12:45.953Z,1.70
2018-02-20T10:13:48.426Z,1.80
2018-02-20T10:14:50.907Z,1.80
2018-02-20T10:15:53.382Z,1.80
2018-02-20T10:16:55.889Z,1.90
2018-02-20T10:17:58.354Z,1.90
2018-02-20T10:19:01.607Z,1.90
2018-02-20T10:20:04.090Z,1.90
2018-02-20T10:21:06.624Z,1.90
2018-02-20T10:22:09.903Z,1.90
2018-02-20T10:23:12.394Z,1.90
2018-02-20T10:24:14.858Z,1.90
2018-02-20T10:25:17.350Z,2.00
2018-02-20T10:26:19.838Z,2.10
2018-02-20T10:27:22.347Z,2.10
2018-02-20T10:28:24.815Z,2.10
2018-02-20T10:29:27.282Z,2.10
2018-02-20T10:30:29.750Z,2.10
2018-02-20T10:31:32.245Z,2.10
2018-02-20T10:32:34.754Z,2.20
2018-02-20T10:33:37.244Z,2.20
2018-02-20T10:34:39.708Z,2.30
2018-02-20T10:35:42.164Z,2.30
2018-02-20T10:36:44.654Z,2.40
2018-02-20T10:37:47.143Z,2.40
2018-02-20T10:39:57.612Z,2.40
2018-02-20T10:42:04.751Z,2.50
2018-02-20T10:43:07.335Z,2.50
2018-02-20T10:44:09.838Z,2.50
2018-02-20T10:45:12.352Z,2.50
2018-02-20T10:46:14.839Z,2.50
2018-02-20T10:47:18.101Z,2.70
2018-02-20T10:48:20.654Z,2.60
2018-02-20T10:49:23.188Z,2.70
2018-02-20T10:50:25.718Z,2.70
2018-02-20T10:51:28.339Z,2.70
2018-02-20T10:52:30.840Z,2.80
2018-02-20T10:53:33.350Z,2.80
2018-02-20T10:54:36.742Z,2.90
2018-02-20T10:55:39.243Z,2.80
2018-02-20T10:56:41.756Z,2.90
2018-02-20T10:57:44.238Z,2.90
2018-02-20T10:58:47.457Z,2.90
2018-02-20T10:59:49.967Z,3.00
2018-02-20T11:00:52.485Z,3.00
2018-02-20T11:01:55.001Z,3.00
2018-02-20T11:02:57.478Z,3.00
2018-02-20T11:03:59.981Z,3.10
2018-02-20T11:05:03.057Z,3.00
2018-02-20T11:06:05.557Z,3.10
2018-02-20T11:07:08.067Z,3.10
2018-02-20T11:08:10.602Z,3.00
2018-02-20T11:09:13.160Z,3.00
2018-02-20T11:10:16.455Z,3.00
2018-02-20T11:11:18.969Z,2.90
2018-02-20T11:12:21.475Z,2.90
2018-02-20T11:13:24.798Z,2.80
2018-02-20T11:14:27.387Z,2.80
2018-02-20T11:15:29.924Z,2.80
2018-02-20T11:16:32.498Z,2.80
2018-02-20T11:17:35.843Z,2.90
2018-02-20T11:18:39.136Z,2.90
2018-02-20T11:19:41.904Z,2.80
2018-02-20T11:20:45.220Z,2.90
2018-02-20T11:21:47.743Z,2.80
2018-02-20T11:22:50.251Z,2.90
2018-02-20T11:23:52.773Z,2.90
2018-02-20T11:24:55.320Z,2.90
2018-02-20T11:25:57.812Z,2.90
2018-02-20T11:27:00.367Z,2.90
2018-02-20T11:28:02.929Z,2.80
2018-02-20T11:29:06.354Z,2.80
2018-02-20T11:30:08.863Z,2.80
2018-02-20T11:31:11.469Z,2.80
2018-02-20T11:32:14.097Z,2.80
2018-02-20T11:33:16.725Z,2.80
2018-02-20T11:34:20.176Z,2.80
2018-02-20T11:35:22.673Z,2.90
2018-02-20T11:36:25.220Z,2.90
2018-02-20T11:37:27.963Z,2.90
2018-02-20T11:38:30.502Z,2.90
2018-02-20T11:39:33.698Z,2.90
2018-02-20T11:40:36.953Z,3.00
2018-02-20T11:41:39.490Z,3.00
2018-02-20T11:42:42.076Z,3.10
2018-02-20T11:43:45.444Z,3.00
2018-02-20T11:44:47.950Z,3.00
2018-02-20T11:45:50.577Z,3.00
2018-02-20T11:46:53.236Z,3.00
2018-02-20T11:47:55.870Z,2.90
2018-02-20T11:48:59.266Z,2.70
2018-02-20T11:50:02.628Z,2.70
2018-02-20T11:51:05.123Z,2.70
2018-02-20T11:52:07.642Z,2.70
2018-02-20T11:53:10.145Z,2.70
2018-02-20T11:54:12.721Z,2.60
2018-02-20T11:55:15.261Z,2.60
2018-02-20T11:56:18.551Z,2.70
2018-02-20T11:57:21.080Z,2.70
2018-02-20T11:58:23.605Z,2.70
2018-02-20T11:59:26.143Z,2.70
2018-02-20T12:00:28.626Z,2.80
2018-02-20T12:01:31.134Z,2.80
2018-02-20T12:02:34.434Z,2.80
2018-02-20T12:03:36.926Z,2.80
2018-02-20T12:04:39.447Z,2.80
2018-02-20T12:05:41.942Z,2.80
2018-02-20T12:06:44.648Z,2.80
2018-02-20T12:07:47.930Z,2.80
2018-02-20T12:08:51.215Z,2.80
2018-02-20T12:09:53.747Z,2.80
2018-02-20T12:10:56.266Z,2.80
2018-02-20T12:11:58.843Z,2.80
2018-02-20T12:13:02.132Z,2.80
2018-02-20T12:14:04.789Z,2.80
2018-02-20T12:15:07.219Z,2.90
2018-02-20T12:16:09.738Z,2.90
2018-02-20T12:17:12.273Z,2.90
2018-02-20T12:18:15.402Z,2.90
2018-02-20T12:19:17.962Z,2.90
2018-02-20T12:20:21.271Z,3.00
2018-02-20T12:21:23.798Z,3.00
2018-02-20T12:22:26.474Z,3.00
2018-02-20T12:23:29.797Z,2.90
2018-02-20T12:24:33.089Z,2.90
2018-02-20T12:25:35.582Z,2.90
2018-02-20T12:26:38.887Z,2.90
2018-02-20T12:27:41.421Z,2.90
2018-02-20T12:28:43.920Z,2.90
2018-02-20T12:29:46.424Z,2.90
2018-02-20T12:30:48.928Z,2.90
2018-02-20T12:31:52.213Z,2.90
2018-02-20T12:32:54.851Z,2.90
2018-02-20T12:33:57.357Z,2.90
2018-02-20T12:34:59.847Z,3.00
2018-02-20T12:36:03.193Z,2.90
2018-02-20T12:37:05.748Z,2.90
2018-02-20T12:38:08.269Z,2.90
2018-02-20T12:39:10.761Z,2.90
2018-02-20T12:40:14.071Z,3.00
2018-02-20T12:41:16.587Z,3.00
2018-02-20T12:42:19.215Z,2.90
2018-02-20T12:43:22.541Z,3.00
2018-02-20T12:44:25.082Z,2.90
2018-02-20T12:45:27.612Z,3.00
2018-02-20T12:46:30.134Z,3.00
2018-02-20T12:47:32.650Z,3.00
2018-02-20T12:48:35.166Z,3.00
2018-02-20T12:49:37.704Z,3.00
2018-02-20T12:50:40.271Z,3.10
2018-02-20T12:51:42.893Z,3.10
2018-02-20T12:52:45.385Z,3.20
2018-02-20T12:53:47.888Z,3.20
2018-02-20T12:54:50.408Z,3.20
2018-02-20T12:55:52.957Z,3.20
2018-02-20T12:56:55.814Z,3.20
2018-02-20T12:57:58.354Z,3.20
2018-02-20T12:59:00.847Z,3.20
2018-02-20T13:00:03.371Z,3.30
2018-02-20T13:01:05.889Z,3.30
2018-02-20T13:02:08.416Z,3.20
2018-02-20T13:03:11.112Z,3.20
2018-02-20T13:04:14.395Z,3.20
2018-02-20T13:05:17.035Z,3.20
2018-02-20T13:06:19.727Z,3.20
2018-02-20T13:07:23.082Z,3.20
2018-02-20T13:08:25.657Z,3.20
2018-02-20T13:09:28.193Z,3.20
2018-02-20T13:10:30.723Z,3.20
2018-02-20T13:11:34.183Z,3.30
2018-02-20T13:12:38.095Z,3.30
2018-02-20T13:13:41.444Z,3.30
2018-02-20T13:14:43.963Z,3.20
2018-02-20T13:15:46.677Z,3.10
2018-02-20T13:16:49.212Z,3.10
2018-02-20T13:17:51.802Z,3.20
2018-02-20T13:18:55.468Z,3.20
2018-02-20T13:19:58.949Z,3.20
2018-02-20T13:21:01.507Z,3.20
2018-02-20T13:22:04.049Z,3.30
2018-02-20T13:23:07.316Z,3.30
2018-02-20T13:24:09.856Z,3.30
2018-02-20T13:25:12.363Z,3.20
2018-02-20T13:26:14.890Z,3.20
2018-02-20T13:27:17.459Z,3.30
2018-02-20T13:28:20.046Z,3.20
2018-02-20T13:29:22.630Z,3.20
2018-02-20T13:30:25.142Z,3.20
2018-02-20T13:31:27.719Z,3.20
2018-02-20T13:32:30.212Z,3.20
2018-02-20T13:33:33.065Z,3.30
2018-02-20T13:34:36.414Z,3.30
2018-02-20T13:35:38.978Z,3.30
2018-02-20T13:36:41.481Z,3.30
2018-02-20T13:37:44.038Z,3.20
2018-02-20T13:38:46.579Z,3.20
2018-02-20T13:39:49.118Z,3.20
2018-02-20T13:40:51.632Z,3.30